Time;durP1;ratioP1;P1;durP2;ratioP2;P2;SDS_P1;SDS_P2;PMS_P1;PMS_P2;Temp;Humidity;BMP_temperature;BMP_pressure;BME280_temperature;BME280_humidity;BME280_pressure;Samples;Min_cycle;Max_cycle;Signal;HPM_P1;HPM_P2
2021/04/20 00:01:50;;;;;;;;;;;;;;;14.70;45.69;101378.84;4959287;28;97796;-84
2021/04/20 00:04:19;;;;;;;;;;;;;;;14.69;45.62;101375.31;4962971;28;98707;-83
2021/04/20 00:06:45;;;;;;;;;;;;;;;14.80;45.31;101379.28;4953716;28;97271;-83
2021/04/20 00:09:11;;;;;;;;;;;;;;;14.99;45.07;101365.13;4954952;28;96940;-83
2021/04/20 00:11:37;;;;;;;;;;;;;;;15.00;44.74;101366.88;4964272;28;98949;-83
2021/04/20 00:14:04;;;;;;;;;;;;;;;14.74;45.23;101368.00;4960905;28;96801;-83
2021/04/20 00:16:30;;;;;;;;;;;;;;;14.62;45.82;101362.34;4956257;28;96752;-83
2021/04/20 00:18:56;;;;;;;;;;;;;;;14.28;46.77;101357.53;4963206;28;97563;-84
2021/04/20 00:21:22;;;;;;;;;;;;;;;14.43;46.40;101364.91;4959803;28;100317;-83
2021/04/20 00:23:48;;;;;;;;;;;;;;;14.57;46.06;101367.81;4959250;28;98957;-85
2021/04/20 00:26:14;;;;;;;;;;;;;;;14.71;45.82;101361.91;4963074;28;97158;-83
2021/04/20 00:28:40;;;;;;;;;;;;;;;14.60;45.87;101369.50;4964861;28;96871;-84
2021/04/20 00:31:05;;;;;;;;;;;;;;;14.59;46.09;101360.66;4959167;28;102044;-84
2021/04/20 00:33:31;;;;;;;;;;;;;;;14.38;46.54;101369.53;4972888;28;100557;-84
2021/04/20 00:35:57;;;;;;;;;;;;;;;14.48;46.37;101360.25;4959924;28;96730;-84
2021/04/20 00:38:23;;;;;;;;;;;;;;;14.85;45.53;101361.34;4963973;28;97066;-83
2021/04/20 00:40:49;;;;;;;;;;;;;;;14.89;45.16;101362.94;4971520;28;99817;-84
2021/04/20 00:43:15;;;;;;;;;;;;;;;14.63;46.01;101361.41;4974089;28;99126;-83
2021/04/20 00:45:43;;;;;;;;;;;;;;;14.95;45.33;101366.19;4981828;28;96907;-83
2021/04/20 00:48:08;;;;;;;;;;;;;;;14.79;45.52;101362.47;4977667;28;96387;-82
2021/04/20 00:50:35;;;;;;;;;;;;;;;15.07;44.95;101367.44;4977444;28;98381;-81
2021/04/20 00:53:02;;;;;;;;;;;;;;;14.58;45.76;101366.91;4992724;28;99352;-83
2021/04/20 00:55:28;;;;;;;;;;;;;;;14.17;47.14;101367.72;4978980;28;96258;-81
2021/04/20 00:57:54;;;;;;;;;;;;;;;14.70;45.92;101369.03;4988115;28;96829;-79
2021/04/20 01:00:21;;;;;;;;;;;;;;;14.97;45.23;101358.13;4979893;28;98237;-81
2021/04/20 01:02:47;;;;;;;;;;;;;;;15.06;44.98;101355.06;4978315;28;98844;-81
2021/04/20 01:05:15;;;;;;;;;;;;;;;14.87;45.51;101354.16;4979868;28;96742;-81
2021/04/20 01:07:42;;;;;;;;;;;;;;;14.66;46.04;101348.81;4978955;28;96036;-82
2021/04/20 01:10:09;;;;;;;;;;;;;;;14.37;46.87;101354.50;4979926;28;97865;-81
2021/04/20 01:12:36;;;;;;;;;;;;;;;14.09;47.56;101353.88;4978003;28;99007;-83
2021/04/20 01:15:03;;;;;;;;;;;;;;;14.14;47.60;101338.59;4969000;28;96837;-84
2021/04/20 01:17:29;;;;;;;;;;;;;;;14.13;47.65;101344.84;4959183;28;96760;-83
2021/04/20 01:19:54;;;;;;;;;;;;;;;14.07;47.61;101340.66;4956648;28;98142;-83
2021/04/20 01:22:22;;;;;;;;;;;;;;;14.08;47.94;101345.03;4940771;28;97471;-83
2021/04/20 01:24:48;;;;;;;;;;;;;;;14.32;47.13;101330.72;4972574;28;97230;-84
2021/04/20 01:27:14;;;;;;;;;;;;;;;14.25;47.18;101334.56;4955918;28;98369;-83
2021/04/20 01:29:40;;;;;;;;;;;;;;;14.21;47.48;101340.97;4972812;28;99197;-83
2021/04/20 01:32:07;;;;;;;;;;;;;;;13.83;48.25;101331.88;4966952;28;99205;-83
2021/04/20 01:34:32;;;;;;;;;;;;;;;13.98;47.89;101336.56;4961288;28;96829;-83
2021/04/20 01:36:58;;;;;;;;;;;;;;;13.98;47.92;101335.69;4957857;28;96981;-84
2021/04/20 01:39:24;;;;;;;;;;;;;;;14.30;47.13;101331.75;4960374;28;98842;-83
2021/04/20 01:41:51;;;;;;;;;;;;;;;14.19;47.38;101333.97;4963710;28;98002;-82
2021/04/20 01:44:17;;;;;;;;;;;;;;;14.40;47.00;101330.44;4959604;28;96812;-83
2021/04/20 01:46:43;;;;;;;;;;;;;;;14.26;47.50;101330.13;4971085;28;97146;-83
2021/04/20 01:49:09;;;;;;;;;;;;;;;14.26;47.65;101333.66;4959641;28;97905;-83
2021/04/20 01:51:35;;;;;;;;;;;;;;;14.34;47.49;101333.34;4960547;28;97503;-83
2021/04/20 01:54:01;;;;;;;;;;;;;;;14.16;47.54;101334.09;4970665;28;96792;-83
2021/04/20 01:56:28;;;;;;;;;;;;;;;14.10;48.32;101334.34;4953850;28;97260;-84
2021/04/20 01:59:01;;;;;;;;;;;;;;;14.25;47.68;101337.22;4957817;28;100590;-82
2021/04/20 02:01:27;;;;;;;;;;;;;;;14.38;47.65;101345.59;4958243;28;98657;-82
2021/04/20 02:03:53;;;;;;;;;;;;;;;14.16;47.96;101340.28;4947988;28;97092;-84
2021/04/20 02:06:20;;;;;;;;;;;;;;;14.08;48.49;101339.72;4958474;28;96769;-83
2021/04/20 02:08:47;;;;;;;;;;;;;;;13.83;48.92;101331.88;4959873;28;98881;-82
2021/04/20 02:11:14;;;;;;;;;;;;;;;13.51;50.36;101337.59;4969600;28;99264;-82
2021/04/20 02:13:40;;;;;;;;;;;;;;;13.83;49.46;101338.97;4975843;28;96669;-83
2021/04/20 02:16:08;;;;;;;;;;;;;;;14.09;48.78;101333.50;4972295;28;97161;-82
2021/04/20 02:18:34;;;;;;;;;;;;;;;14.04;48.80;101335.47;4974108;28;99313;-79
2021/04/20 02:21:01;;;;;;;;;;;;;;;13.82;48.88;101335.47;4977036;28;97775;-79
2021/04/20 02:23:27;;;;;;;;;;;;;;;13.95;48.77;101344.66;4982935;28;96985;-81
2021/04/20 02:25:54;;;;;;;;;;;;;;;13.86;48.78;101331.75;4977491;28;97926;-81
2021/04/20 02:28:20;;;;;;;;;;;;;;;13.71;49.06;101337.69;4982478;28;97962;-82
2021/04/20 02:30:45;;;;;;;;;;;;;;;13.49;49.68;101334.09;4983522;28;97688;-83
2021/04/20 02:33:12;;;;;;;;;;;;;;;13.56;49.49;101333.81;4967593;28;96963;-82
2021/04/20 02:35:38;;;;;;;;;;;;;;;13.45;49.90;101327.19;4951584;28;97180;-82
2021/04/20 02:38:05;;;;;;;;;;;;;;;13.51;49.72;101330.47;4953818;28;98821;-83
2021/04/20 02:40:32;;;;;;;;;;;;;;;13.51;49.88;101325.19;4965185;28;99269;-82
2021/04/20 02:42:58;;;;;;;;;;;;;;;13.39;49.91;101336.22;4963126;28;96826;-82
2021/04/20 02:45:25;;;;;;;;;;;;;;;13.50;49.93;101327.88;4960616;28;97569;-83
2021/04/20 02:47:51;;;;;;;;;;;;;;;13.43;49.86;101327.25;4970516;28;99038;-83
2021/04/20 02:50:19;;;;;;;;;;;;;;;12.99;50.70;101328.88;4954119;28;97783;-81
2021/04/20 02:52:47;;;;;;;;;;;;;;;12.87;51.37;101315.16;4954668;28;96895;-83
2021/04/20 02:55:14;;;;;;;;;;;;;;;12.57;52.45;101317.13;4955448;28;96842;-82
2021/04/20 02:57:41;;;;;;;;;;;;;;;12.42;52.70;101320.28;4954156;28;100406;-82
2021/04/20 03:00:08;;;;;;;;;;;;;;;12.36;53.17;101324.00;4967291;28;99167;-84
2021/04/20 03:02:35;;;;;;;;;;;;;;;12.73;51.82;101321.81;4954398;28;96670;-83
2021/04/20 03:05:00;;;;;;;;;;;;;;;12.13;53.33;101324.78;4956395;28;97261;-83
2021/04/20 03:07:27;;;;;;;;;;;;;;;12.35;53.03;101317.84;4948964;28;98658;-83
2021/04/20 03:09:53;;;;;;;;;;;;;;;12.31;53.17;101321.53;4966086;28;98898;-82
2021/04/20 03:12:21;;;;;;;;;;;;;;;12.33;53.09;101317.06;4954848;28;97660;-83
2021/04/20 03:14:47;;;;;;;;;;;;;;;12.55;52.46;101318.94;4954217;28;97922;-84
2021/04/20 03:17:12;;;;;;;;;;;;;;;12.27;53.18;101321.69;4953827;28;99307;-84
2021/04/20 03:19:38;;;;;;;;;;;;;;;11.85;54.60;101319.50;4955536;28;98795;-85
2021/04/20 03:22:05;;;;;;;;;;;;;;;11.47;55.74;101304.78;4960696;28;96830;-84
2021/04/20 03:24:56;;;;;;;;;;;;;;;11.81;54.93;101311.72;4957492;28;96839;-85
2021/04/20 03:27:22;;;;;;;;;;;;;;;11.70;55.12;101305.84;4964267;28;98951;-84
2021/04/20 03:29:48;;;;;;;;;;;;;;;12.07;54.18;101308.22;4960469;28;98882;-84
2021/04/20 03:32:14;;;;;;;;;;;;;;;12.25;53.33;101312.91;4967028;28;96904;-84
2021/04/20 03:34:44;;;;;;;;;;;;;;;12.16;53.56;101303.47;4957859;28;97748;-83
2021/04/20 03:37:12;;;;;;;;;;;;;;;12.18;53.17;101304.31;4970226;28;101096;-85
2021/04/20 03:39:41;;;;;;;;;;;;;;;12.08;54.19;101294.91;4976924;28;97733;-84
2021/04/20 03:42:10;;;;;;;;;;;;;;;11.95;54.08;101297.09;4948112;28;96780;-83
2021/04/20 03:44:43;;;;;;;;;;;;;;;12.05;54.07;101299.47;4967077;28;98054;-84
2021/04/20 03:47:12;;;;;;;;;;;;;;;12.18;53.58;101298.13;4971223;28;101833;-84
2021/04/20 03:49:39;;;;;;;;;;;;;;;12.46;52.50;101298.94;4958917;28;99333;-84
2021/04/20 03:52:11;;;;;;;;;;;;;;;12.28;52.73;101305.72;4960106;28;96902;-84
2021/04/20 03:54:38;;;;;;;;;;;;;;;12.47;52.34;101297.16;4966159;28;96889;-84
2021/04/20 03:57:05;;;;;;;;;;;;;;;12.42;52.85;101297.28;4966271;28;99153;-83
2021/04/20 03:59:32;;;;;;;;;;;;;;;12.65;51.64;101293.88;4973185;28;98881;-84
2021/04/20 04:02:00;;;;;;;;;;;;;;;12.54;51.85;101304.81;4960082;28;96815;-83
2021/04/20 04:04:27;;;;;;;;;;;;;;;12.75;51.44;101301.44;4971527;28;97194;-84
2021/04/20 04:06:53;;;;;;;;;;;;;;;12.78;51.15;101306.63;4967315;28;98195;-84
2021/04/20 04:09:19;;;;;;;;;;;;;;;12.59;51.27;101305.56;4971152;28;98778;-84
2021/04/20 04:11:47;;;;;;;;;;;;;;;12.78;50.63;101305.75;4976220;28;96629;-84
2021/04/20 04:14:15;;;;;;;;;;;;;;;12.38;51.91;101307.16;4952531;28;96943;-83
2021/04/20 04:16:42;;;;;;;;;;;;;;;12.13;52.72;101310.69;4954152;28;99352;-83
2021/04/20 04:19:09;;;;;;;;;;;;;;;12.07;52.73;101313.53;4942839;28;98647;-83
2021/04/20 04:21:40;;;;;;;;;;;;;;;11.97;53.04;101310.28;4961369;28;97130;-84
2021/04/20 04:24:09;;;;;;;;;;;;;;;11.36;54.88;101317.44;4962430;28;97284;-85
2021/04/20 04:26:36;;;;;;;;;;;;;;;10.82;56.56;101316.41;4962714;28;98177;-84
2021/04/20 04:29:03;;;;;;;;;;;;;;;11.07;55.89;101317.44;4969589;28;102173;-84
2021/04/20 04:31:29;;;;;;;;;;;;;;;10.92;56.25;101323.16;4962195;28;96832;-84
2021/04/20 04:33:56;;;;;;;;;;;;;;;11.03;55.85;101318.41;4963652;28;96836;-82
2021/04/20 04:36:22;;;;;;;;;;;;;;;11.26;55.51;101321.28;4961284;28;101979;-82
2021/04/20 04:38:48;;;;;;;;;;;;;;;12.10;53.12;101316.94;4959911;28;99081;-83
2021/04/20 04:41:15;;;;;;;;;;;;;;;12.23;52.43;101325.34;4963139;28;96918;-82
2021/04/20 04:43:41;;;;;;;;;;;;;;;12.56;51.25;101321.56;4962575;28;97009;-83
2021/04/20 04:46:07;;;;;;;;;;;;;;;12.70;50.65;101326.38;4963200;28;97667;-83
2021/04/20 04:48:33;;;;;;;;;;;;;;;12.16;51.67;101327.31;4971366;28;97936;-84
2021/04/20 04:51:00;;;;;;;;;;;;;;;12.08;51.62;101326.69;4959505;28;96792;-83
2021/04/20 04:53:27;;;;;;;;;;;;;;;11.10;55.11;101325.28;4962475;28;96965;-84
2021/04/20 04:55:54;;;;;;;;;;;;;;;10.94;55.25;101329.28;4964217;28;101018;-85
2021/04/20 04:58:20;;;;;;;;;;;;;;;11.31;55.12;101329.94;4963854;28;99193;-85
2021/04/20 05:00:46;;;;;;;;;;;;;;;11.83;52.94;101333.69;4962041;28;96833;-85
2021/04/20 05:03:13;;;;;;;;;;;;;;;11.93;52.42;101336.03;4962072;28;96777;-86
2021/04/20 05:05:39;;;;;;;;;;;;;;;11.50;53.64;101331.13;4960170;28;99344;-84
2021/04/20 05:08:07;;;;;;;;;;;;;;;11.58;53.76;101328.25;4966296;28;100660;-84
2021/04/20 05:10:33;;;;;;;;;;;;;;;11.09;54.68;101339.44;4964201;28;96791;-83
2021/04/20 05:13:00;;;;;;;;;;;;;;;11.11;54.37;101342.88;4960108;28;97380;-83
2021/04/20 05:15:26;;;;;;;;;;;;;;;12.15;52.00;101340.63;4958162;28;97568;-83
2021/04/20 05:17:52;;;;;;;;;;;;;;;12.42;50.85;101338.84;4960032;28;98815;-85
2021/04/20 05:20:19;;;;;;;;;;;;;;;12.49;50.44;101337.72;4961834;28;96746;-84
2021/04/20 05:22:45;;;;;;;;;;;;;;;12.64;49.72;101331.91;4959748;28;97303;-84
2021/04/20 05:25:14;;;;;;;;;;;;;;;12.67;49.77;101334.44;4970974;28;97803;-82
2021/04/20 05:27:40;;;;;;;;;;;;;;;11.87;51.65;101338.00;4962318;28;99219;-81
2021/04/20 05:30:06;;;;;;;;;;;;;;;12.38;50.37;101341.59;4972198;28;97306;-83
2021/04/20 05:32:33;;;;;;;;;;;;;;;11.43;53.08;101342.81;4970142;28;96923;-82
2021/04/20 05:34:59;;;;;;;;;;;;;;;11.58;52.82;101339.72;4971969;28;99631;-82
2021/04/20 05:37:29;;;;;;;;;;;;;;;12.16;51.39;101337.91;4977253;28;99229;-83
2021/04/20 05:39:55;;;;;;;;;;;;;;;12.26;50.47;101339.38;4977682;28;96729;-82
2021/04/20 05:42:21;;;;;;;;;;;;;;;12.84;49.49;101336.50;4970506;28;97223;-84
2021/04/20 05:44:47;;;;;;;;;;;;;;;12.64;49.48;101340.72;4966025;28;98971;-83
2021/04/20 05:47:13;;;;;;;;;;;;;;;12.99;48.86;101339.47;4956587;28;100168;-83
2021/04/20 05:49:39;;;;;;;;;;;;;;;11.47;52.67;101335.66;4960178;28;96894;-84
2021/04/20 05:52:05;;;;;;;;;;;;;;;11.96;52.07;101343.00;4964780;28;96744;-84
2021/04/20 05:54:32;;;;;;;;;;;;;;;12.48;50.26;101343.94;4966536;28;99021;-84
2021/04/20 05:56:58;;;;;;;;;;;;;;;12.35;50.39;101343.47;4957623;28;99301;-87
2021/04/20 05:59:25;;;;;;;;;;;;;;;12.28;50.58;101342.81;4960748;28;97004;-88
2021/04/20 06:01:51;;;;;;;;;;;;;;;12.61;49.93;101335.50;4952108;28;99509;-82
2021/04/20 06:04:17;;;;;;;;;;;;;;;12.48;50.35;101330.69;4968742;28;98890;-84
2021/04/20 06:06:44;;;;;;;;;;;;;;;12.20;50.88;101344.00;4957318;28;99139;-83
2021/04/20 06:09:11;;;;;;;;;;;;;;;12.58;50.07;101332.97;4955578;28;98111;-83
2021/04/20 06:11:38;;;;;;;;;;;;;;;12.69;49.24;101336.13;4961197;28;97937;-82
2021/04/20 06:14:05;;;;;;;;;;;;;;;13.26;48.17;101331.47;4961312;28;99034;-81
2021/04/20 06:16:32;;;;;;;;;;;;;;;13.93;46.37;101330.56;4966565;28;99126;-87
2021/04/20 06:18:58;;;;;;;;;;;;;;;14.72;44.64;101339.72;4963137;28;97319;-85
2021/04/20 06:21:26;;;;;;;;;;;;;;;14.56;44.51;101339.53;4969377;28;96734;-83
2021/04/20 06:23:54;;;;;;;;;;;;;;;14.75;43.97;101328.97;4952612;28;97838;-81
2021/04/20 06:26:20;;;;;;;;;;;;;;;14.60;44.07;101330.47;4974477;28;99608;-84
2021/04/20 06:28:47;;;;;;;;;;;;;;;14.90;43.79;101332.75;4974737;28;97390;-83
2021/04/20 06:31:14;;;;;;;;;;;;;;;15.18;42.88;101327.91;4978750;28;96644;-84
2021/04/20 06:33:56;;;;;;;;;;;;;;;15.40;42.29;101328.66;4977189;28;99848;-82
2021/04/20 06:36:23;;;;;;;;;;;;;;;15.38;42.05;101319.88;4973724;28;97838;-85
2021/04/20 06:38:49;;;;;;;;;;;;;;;15.35;42.25;101317.38;4978028;28;96984;-83
2021/04/20 06:41:19;;;;;;;;;;;;;;;14.59;43.67;101323.41;4957386;28;96911;-83
2021/04/20 06:43:51;;;;;;;;;;;;;;;14.58;44.35;101321.69;4971859;28;96859;-83
2021/04/20 06:46:21;;;;;;;;;;;;;;;14.23;44.63;101320.50;4968505;28;101389;-83
2021/04/20 06:48:48;;;;;;;;;;;;;;;13.80;45.99;101324.03;4957484;28;97082;-82
2021/04/20 06:51:15;;;;;;;;;;;;;;;14.30;45.02;101327.28;4977858;28;96809;-83
2021/04/20 06:53:45;;;;;;;;;;;;;;;13.88;45.69;101323.72;4969118;28;98917;-83
2021/04/20 06:56:18;;;;;;;;;;;;;;;14.82;44.26;101326.91;4971282;28;97678;-85
2021/04/20 07:04:40;;;;;;;;;;;;;;;14.65;44.47;101327.59;4978350;28;96265;-86
2021/04/20 07:07:10;;;;;;;;;;;;;;;15.72;41.89;101326.31;4994959;28;96862;-88
2021/04/20 07:09:42;;;;;;;;;;;;;;;16.71;39.97;101314.25;4979027;28;96535;-87
2021/04/20 07:12:11;;;;;;;;;;;;;;;18.35;36.75;101318.50;4978914;28;95817;-88
2021/04/20 07:14:45;;;;;;;;;;;;;;;18.68;35.16;101311.19;4977551;28;100255;-86
2021/04/20 07:17:35;;;;;;;;;;;;;;;18.07;36.57;101313.88;4975687;28;97023;-87
2021/04/20 07:20:04;;;;;;;;;;;;;;;17.06;38.22;101320.44;4955551;28;96770;-87
2021/04/20 07:22:53;;;;;;;;;;;;;;;16.65;39.11;101311.91;4978433;28;96582;-86
2021/04/20 07:25:25;;;;;;;;;;;;;;;16.49;39.82;101322.47;4987412;28;99243;-88
2021/04/20 07:27:58;;;;;;;;;;;;;;;16.98;38.94;101314.63;5000562;28;99423;-91
2021/04/20 07:35:36;;;;;;;;;;;;;;;18.14;36.32;101298.34;4987075;22;99601;-88
2021/04/20 07:38:09;;;;;;;;;;;;;;;17.99;36.48;101302.75;4979134;28;98141;-87
2021/04/20 07:43:40;;;;;;;;;;;;;;;17.86;37.03;101302.59;4977757;23;115612;-87
2021/04/20 07:46:09;;;;;;;;;;;;;;;18.70;35.56;101303.06;4915046;28;96593;-85
2021/04/20 07:48:45;;;;;;;;;;;;;;;18.48;35.93;101298.09;4932105;28;97564;-88
2021/04/20 07:51:44;;;;;;;;;;;;;;;18.37;35.79;101300.56;4936484;28;97126;-87
2021/04/20 07:54:13;;;;;;;;;;;;;;;18.21;36.34;101302.38;4941655;28;96784;-84
2021/04/20 07:56:44;;;;;;;;;;;;;;;18.38;36.00;101298.75;4925102;28;98713;-83
2021/04/20 07:59:12;;;;;;;;;;;;;;;18.45;35.75;101294.72;4941355;28;99108;-84
2021/04/20 08:04:51;;;;;;;;;;;;;;;17.74;37.15;101292.59;4948307;28;98780;-82
2021/04/20 08:07:20;;;;;;;;;;;;;;;17.48;37.94;101293.19;4932915;28;98265;-81
2021/04/20 08:09:50;;;;;;;;;;;;;;;18.27;36.89;101291.31;4937376;28;99229;-83
2021/04/20 08:12:18;;;;;;;;;;;;;;;17.08;38.57;101287.34;4927573;28;96863;-84
2021/04/20 08:14:47;;;;;;;;;;;;;;;17.95;37.28;101285.19;4945901;28;97531;-84
2021/04/20 08:17:16;;;;;;;;;;;;;;;18.07;36.98;101286.28;4945573;28;101745;-83
2021/04/20 08:19:43;;;;;;;;;;;;;;;18.28;36.68;101282.34;4951732;28;99389;-83
2021/04/20 08:22:12;;;;;;;;;;;;;;;19.01;35.19;101275.25;4957274;28;96687;-83
2021/04/20 08:24:49;;;;;;;;;;;;;;;18.99;35.16;101279.84;4951149;28;96826;-86
2021/04/20 08:27:18;;;;;;;;;;;;;;;18.44;36.24;101279.66;4954825;28;97840;-85
2021/04/20 08:29:46;;;;;;;;;;;;;;;18.76;35.47;101281.28;4956805;28;98162;-83
2021/04/20 08:32:15;;;;;;;;;;;;;;;18.83;35.73;101277.25;4956487;28;96882;-84
2021/04/20 08:34:44;;;;;;;;;;;;;;;19.29;34.56;101275.25;4959632;28;96377;-82
2021/04/20 08:37:16;;;;;;;;;;;;;;;19.77;34.12;101270.38;4961229;28;98246;-85
2021/04/20 08:39:55;;;;;;;;;;;;;;;19.85;33.35;101273.44;4957664;28;96718;-84
2021/04/20 08:42:26;;;;;;;;;;;;;;;19.68;33.87;101276.38;4959548;28;96295;-85
2021/04/20 08:44:56;;;;;;;;;;;;;;;19.62;33.55;101271.41;4951914;28;96013;-82
2021/04/20 08:47:26;;;;;;;;;;;;;;;19.66;33.48;101275.59;4961092;28;98470;-83
2021/04/20 08:49:54;;;;;;;;;;;;;;;19.84;33.31;101274.38;4959503;28;98332;-84
2021/04/20 08:52:39;;;;;;;;;;;;;;;19.71;33.75;101268.09;4953354;28;96450;-84
2021/04/20 08:55:10;;;;;;;;;;;;;;;19.58;33.46;101265.38;4955538;28;95886;-82
2021/04/20 08:57:46;;;;;;;;;;;;;;;19.17;34.24;101265.28;4960014;28;98067;-85
2021/04/20 09:00:13;;;;;;;;;;;;;;;18.41;35.50;101256.59;4938478;28;97555;-85
2021/04/20 09:02:46;;;;;;;;;;;;;;;19.32;34.10;101258.09;4948870;28;96687;-83
2021/04/20 09:05:21;;;;;;;;;;;;;;;19.62;33.16;101263.38;4951690;28;96622;-83
2021/04/20 09:07:58;;;;;;;;;;;;;;;19.40;33.41;101261.16;4945498;28;97902;-84
2021/04/20 09:10:26;;;;;;;;;;;;;;;19.36;33.85;101265.84;4930568;28;96664;-87
2021/04/20 09:12:57;;;;;;;;;;;;;;;19.79;32.94;101257.75;4949771;28;96890;-85
2021/04/20 09:15:26;;;;;;;;;;;;;;;20.28;32.50;101256.19;4952809;28;97678;-85
2021/04/20 09:17:56;;;;;;;;;;;;;;;20.02;31.89;101261.59;4955684;28;99273;-85
2021/04/20 09:20:31;;;;;;;;;;;;;;;20.64;30.92;101258.22;4951552;28;98022;-85
2021/04/20 09:23:00;;;;;;;;;;;;;;;20.30;31.24;101259.63;4949247;28;96743;-83
2021/04/20 09:25:29;;;;;;;;;;;;;;;19.86;31.84;101256.38;4938402;28;96808;-85
2021/04/20 09:28:01;;;;;;;;;;;;;;;20.22;31.52;101251.22;4940015;28;99039;-83
2021/04/20 09:30:33;;;;;;;;;;;;;;;19.01;33.80;101259.19;4939125;28;99556;-83
2021/04/20 09:33:07;;;;;;;;;;;;;;;18.37;34.97;101257.75;4923712;28;96977;-81
2021/04/20 09:35:33;;;;;;;;;;;;;;;18.20;35.16;101256.06;4934906;28;96973;-82
2021/04/20 09:38:01;;;;;;;;;;;;;;;18.13;35.55;101260.03;4939674;28;98972;-83
2021/04/20 09:40:28;;;;;;;;;;;;;;;17.80;36.15;101253.97;4928984;28;96964;-82
2021/04/20 09:42:55;;;;;;;;;;;;;;;18.05;36.00;101261.47;4937410;28;97276;-83
2021/04/20 09:45:24;;;;;;;;;;;;;;;19.28;33.84;101252.09;4935070;28;97218;-84
2021/04/20 09:48:02;;;;;;;;;;;;;;;19.84;32.65;101258.31;4941704;28;99279;-83
2021/04/20 09:50:31;;;;;;;;;;;;;;;20.26;32.03;101262.63;4957953;28;97725;-82
2021/04/20 09:53:06;;;;;;;;;;;;;;;19.95;32.37;101253.09;4949818;28;96449;-81
2021/04/20 09:55:33;;;;;;;;;;;;;;;20.25;32.26;101245.69;4956590;28;95925;-81
2021/04/20 09:58:00;;;;;;;;;;;;;;;20.55;31.51;101258.84;4945201;28;98991;-82
2021/04/20 10:00:26;;;;;;;;;;;;;;;20.76;31.02;101251.13;4939894;28;97794;-82
2021/04/20 10:02:54;;;;;;;;;;;;;;;20.43;31.91;101248.09;4936475;28;96861;-82
2021/04/20 10:05:22;;;;;;;;;;;;;;;20.26;32.22;101247.41;4938866;28;96903;-84
2021/04/20 10:07:54;;;;;;;;;;;;;;;20.42;31.61;101247.22;4939621;28;99026;-84
2021/04/20 10:10:29;;;;;;;;;;;;;;;20.47;31.22;101239.75;4938469;28;98779;-83
2021/04/20 10:13:01;;;;;;;;;;;;;;;20.75;31.01;101249.41;4937824;28;97014;-83
2021/04/20 10:15:31;;;;;;;;;;;;;;;21.16;30.58;101248.34;4939051;28;96981;-83
2021/04/20 10:18:03;;;;;;;;;;;;;;;20.59;31.35;101244.25;4937321;28;98674;-83
2021/04/20 10:20:37;;;;;;;;;;;;;;;20.65;31.29;101240.28;4933833;28;98297;-84
2021/04/20 10:23:08;;;;;;;;;;;;;;;19.78;32.34;101239.94;4934509;28;99009;-82
2021/04/20 10:25:38;;;;;;;;;;;;;;;20.25;32.16;101239.44;4939460;28;96909;-83
2021/04/20 10:28:08;;;;;;;;;;;;;;;20.71;31.51;101233.63;4934965;28;98779;-84
2021/04/20 10:30:37;;;;;;;;;;;;;;;20.62;31.73;101237.78;4945392;28;99202;-88
2021/04/20 10:33:03;;;;;;;;;;;;;;;20.82;30.84;101234.56;4936775;28;96874;-83
2021/04/20 10:35:30;;;;;;;;;;;;;;;20.77;30.64;101231.38;4937440;28;96841;-84
2021/04/20 10:37:57;;;;;;;;;;;;;;;21.07;30.61;101239.06;4938078;28;98993;-83
2021/04/20 10:40:34;;;;;;;;;;;;;;;20.22;31.75;101231.59;4952886;28;100690;-85
2021/04/20 10:43:04;;;;;;;;;;;;;;;20.76;30.91;101229.63;4933353;28;96683;-83
2021/04/20 10:45:30;;;;;;;;;;;;;;;20.63;30.97;101223.41;4949841;28;96803;-85
2021/04/20 10:47:57;;;;;;;;;;;;;;;20.98;31.03;101221.78;4952127;28;97887;-85
2021/04/20 10:50:25;;;;;;;;;;;;;;;21.08;30.92;101225.53;4953489;28;96796;-84
2021/04/20 10:52:52;;;;;;;;;;;;;;;21.00;31.06;101214.47;4940482;28;96870;-84
2021/04/20 10:55:20;;;;;;;;;;;;;;;21.06;30.46;101214.06;4948252;28;96608;-84
2021/04/20 10:57:46;;;;;;;;;;;;;;;21.02;30.33;101217.91;4948110;28;99160;-85
2021/04/20 11:00:19;;;;;;;;;;;;;;;20.25;31.18;101218.84;4951567;28;98986;-85
2021/04/20 11:02:47;;;;;;;;;;;;;;;20.58;31.21;101212.13;4950906;28;98795;-86
2021/04/20 11:05:15;;;;;;;;;;;;;;;20.91;30.92;101207.06;4944962;28;96811;-86
2021/04/20 11:07:43;;;;;;;;;;;;;;;20.11;31.47;101210.88;4948471;28;96700;-85
2021/04/20 11:10:10;;;;;;;;;;;;;;;20.28;30.96;101207.03;4946420;28;97712;-85
2021/04/20 11:12:40;;;;;;;;;;;;;;;20.39;30.89;101209.00;4947700;28;96745;-86
2021/04/20 11:15:10;;;;;;;;;;;;;;;20.56;30.96;101201.50;4946223;28;97256;-85
2021/04/20 11:17:45;;;;;;;;;;;;;;;20.56;30.54;101200.63;4947364;28;97727;-86
2021/04/20 11:20:12;;;;;;;;;;;;;;;20.80;30.08;101193.56;4946764;28;97506;-85
2021/04/20 11:22:41;;;;;;;;;;;;;;;20.93;29.68;101199.78;4944391;28;97017;-84
2021/04/20 11:25:11;;;;;;;;;;;;;;;19.42;32.05;101195.81;4945278;28;96796;-85
2021/04/20 11:27:40;;;;;;;;;;;;;;;20.39;30.46;101190.22;4941087;28;100543;-83
2021/04/20 11:30:08;;;;;;;;;;;;;;;21.02;30.24;101184.81;4945592;28;97597;-86
2021/04/20 11:32:36;;;;;;;;;;;;;;;21.17;30.06;101175.69;4959132;28;95947;-85
2021/04/20 11:35:05;;;;;;;;;;;;;;;20.99;29.79;101182.34;4958215;28;96857;-85
2021/04/20 11:37:33;;;;;;;;;;;;;;;21.14;29.68;101183.06;4955119;28;99129;-86
2021/04/20 11:40:02;;;;;;;;;;;;;;;21.24;30.03;101176.94;4945725;28;97257;-85
2021/04/20 11:42:39;;;;;;;;;;;;;;;20.50;31.04;101171.53;4954686;28;97192;-86
2021/04/20 11:45:12;;;;;;;;;;;;;;;21.25;30.24;101172.44;4927652;28;96746;-86
2021/04/20 11:47:48;;;;;;;;;;;;;;;20.65;30.68;101168.66;4956380;28;98211;-86
2021/04/20 11:50:16;;;;;;;;;;;;;;;19.98;32.29;101171.56;4950748;28;97766;-85
2021/04/20 11:52:43;;;;;;;;;;;;;;;19.80;32.15;101162.94;4938700;28;96705;-86
2021/04/20 11:55:12;;;;;;;;;;;;;;;20.52;31.15;101166.94;4955450;28;96957;-84
2021/04/20 11:57:39;;;;;;;;;;;;;;;20.68;30.84;101167.53;4955454;28;99250;-86
2021/04/20 12:00:05;;;;;;;;;;;;;;;21.10;30.51;101171.69;4947887;28;96875;-85
2021/04/20 12:02:33;;;;;;;;;;;;;;;20.50;31.15;101168.84;4947365;28;96681;-85
2021/04/20 12:05:00;;;;;;;;;;;;;;;19.87;31.72;101158.88;4947495;28;97436;-86
2021/04/20 12:07:28;;;;;;;;;;;;;;;20.69;31.13;101159.38;4939861;28;99306;-86
2021/04/20 12:09:55;;;;;;;;;;;;;;;21.04;30.64;101169.44;4943956;28;97881;-85
2021/04/20 12:12:25;;;;;;;;;;;;;;;21.26;30.61;101158.03;4945799;28;97370;-85
2021/04/20 12:14:58;;;;;;;;;;;;;;;21.32;30.25;101154.88;4946161;28;98502;-85
2021/04/20 12:17:27;;;;;;;;;;;;;;;21.44;30.09;101156.66;4941022;28;98229;-85
2021/04/20 12:19:54;;;;;;;;;;;;;;;21.85;29.81;101151.72;4941830;28;100258;-85
2021/04/20 12:22:23;;;;;;;;;;;;;;;21.29;30.94;101150.59;4942635;28;96767;-85
2021/04/20 12:24:56;;;;;;;;;;;;;;;20.80;31.24;101157.78;4940118;28;97966;-85
2021/04/20 12:27:25;;;;;;;;;;;;;;;21.54;31.14;101141.53;4936330;28;98902;-86
2021/04/20 12:29:53;;;;;;;;;;;;;;;22.02;30.19;101138.84;4939552;28;99268;-85
2021/04/20 12:32:21;;;;;;;;;;;;;;;22.10;29.46;101139.09;4937870;28;98155;-85
2021/04/20 12:34:52;;;;;;;;;;;;;;;21.95;29.29;101143.78;4940815;28;96763;-85
2021/04/20 12:37:21;;;;;;;;;;;;;;;22.20;29.43;101138.25;4937338;28;98897;-85
2021/04/20 12:40:00;;;;;;;;;;;;;;;22.32;29.53;101133.75;4939547;28;98037;-84
2021/04/20 12:42:27;;;;;;;;;;;;;;;22.28;28.92;101134.97;4926032;28;98926;-82
2021/04/20 12:44:56;;;;;;;;;;;;;;;22.47;28.90;101131.69;4942898;28;97049;-84
2021/04/20 12:47:26;;;;;;;;;;;;;;;21.75;29.27;101122.94;4941621;28;96893;-85
2021/04/20 12:49:53;;;;;;;;;;;;;;;22.36;28.80;101124.47;4942453;28;99887;-84
2021/04/20 12:52:26;;;;;;;;;;;;;;;22.62;28.82;101128.66;4940627;28;96833;-85
2021/04/20 12:54:59;;;;;;;;;;;;;;;22.82;28.85;101126.22;4937983;28;96820;-83
2021/04/20 12:57:30;;;;;;;;;;;;;;;22.87;28.32;101115.94;4934291;28;99428;-82
2021/04/20 12:59:58;;;;;;;;;;;;;;;23.39;27.74;101120.59;4923719;28;98685;-84